• Join FlightAware (Why Join?)
  • Login
  • US Flag 
06:20PM EST


 

Airport Tracker/Info


-or-


 

Live Flight TrackerFlight Track Log ✈ UAL4679 ✈ 03-May-2013 ✈ KCLE - KMKE

Flight Track Log - Related Links

Times and Time Zones

All times are in EDT time to prevent confusion due to time zone crossing. See the UAL4679 flight status page for this flight to view local times or setup timezone preferences in your user account.

Time Position Orientation Groundspeed Altitude Reporting Facility
EDT Latitude Longitude Course Direction KTS MPH feet Rate Location/Type
07:52AM 41.3939 -81.8922 261° West 171 197 2,000  Level Cleveland Center
07:52AM 41.3892 -81.9336 261° West 208 239 3,200 1,980 Climbing Cleveland Center
07:53AM 41.3778 -82.0219 260° West 235 270 5,300 2,280 Climbing Cleveland Center
07:54AM 41.3658 -82.1186 261° West 262 302 7,800 2,400 Climbing Cleveland Center
07:55AM 41.3500 -82.2233 259° West 278 320 10,200 1,800 Climbing Cleveland Center
07:56AM 41.3336 -82.3336 259° West 302 348 11,500 1,260 Climbing Cleveland Center
07:57AM 41.3169 -82.4658 261° West 336 387 12,800 1,320 Climbing Cleveland Center
07:58AM 41.2981 -82.5953 259° West 357 411 14,200 1,500 Climbing Cleveland Center
07:59AM 41.3039 -82.7308 273° West 368 423 15,800 1,440 Climbing Cleveland Center
08:00AM 41.3792 -82.8275 316° Northwest 347 399 17,100 1,200 Climbing Cleveland Center
08:01AM 41.4569 -82.8994 325° Northwest 367 422 18,200 1,260 Climbing Cleveland Center
08:02AM 41.5450 -82.9803 326° Northwest 383 441 19,700 1,500 Climbing Cleveland Center
08:03AM 41.6350 -83.0669 324° Northwest 389 448 21,200 1,140 Climbing Cleveland Center
08:04AM 41.7247 -83.1539 324° Northwest 394 453 22,000 360 Climbing Cleveland Center
08:05AM 41.8186 -83.2442 324° Northwest 401 461 22,000  Level Cleveland Center
08:06AM 41.9308 -83.3492 325° Northwest 431 496 22,000  Level Cleveland Center
08:07AM 42.0306 -83.4458 324° Northwest 443 510 22,000  Level Cleveland Center
08:08AM 42.1217 -83.5564 318° Northwest 443 510 22,000  Level Cleveland Center
08:09AM 42.1981 -83.6581 315° West 437 503 22,000  Level Cleveland Center
08:10AM 42.2756 -83.7992 307° West 429 494 22,000  Level Cleveland Center
08:11AM 42.3319 -83.9369 299° West 429 494 22,000  Level Cleveland Center
08:12AM 42.3903 -84.0778 299° West 429 494 22,000  Level Cleveland Center
08:13AM 42.4464 -84.2189 298° West 429 494 22,000  Level Cleveland Center
08:15AM 42.5661 -84.5061 300° West 426 490 22,000  Level Chicago Center
08:16AM 42.6239 -84.6467 299° West 427 491 22,000  Level Chicago Center
08:17AM 42.6797 -84.7867 299° West 427 491 22,000  Level Chicago Center
08:18AM 42.7353 -84.9272 298° West 425 489 22,000  Level Chicago Center
08:19AM 42.7917 -85.0678 299° West 424 488 22,000  Level Chicago Center
08:20AM 42.8469 -85.2097 298° West 426 490 22,000  Level Chicago Center
08:22AM 42.9017 -85.3497 298° West 421 484 22,000  Level Chicago Center
08:23AM 42.9658 -85.5111 299° West 406 467 22,000  Level Chicago Center
08:24AM 43.0161 -85.6417 298° West 393 452 22,000  Level Chicago Center
08:25AM 43.0669 -85.7714 298° West 392 451 22,000  Level Chicago Center
08:26AM 43.1178 -85.9014 298° West 397 457 22,000  Level Chicago Center
08:27AM 43.1656 -86.0344 296° West 401 461 22,000  Level Chicago Center
08:28AM 43.1675 -86.2103 271° West 393 452 22,000  Level Chicago Center
08:29AM 43.1653 -86.3564 269° West 390 449 22,000 -420 Level Chicago Center
08:30AM 43.1628 -86.5047 269° West 392 451 21,200 -1,500 Descending Chicago Center
08:31AM 43.1603 -86.6458 269° West 377 434 19,000 -2,040 Descending Chicago Center
08:32AM 43.1567 -86.7831 268° West 364 419 17,100 -1,980 Descending Chicago Center
08:33AM 43.1544 -86.9222 269° West 366 421 15,000 -1,980 Descending Chicago Center
08:34AM 43.1544 -87.0872 270° West 361 415 13,100 -1,680 Descending Chicago Center
08:35AM 43.1275 -87.2064 253° West 349 402 11,600 -1,380 Descending Chicago Center
08:36AM 43.0847 -87.3128 241° Southwest 324 373 10,300 -780 Descending Chicago Center
08:37AM 43.0367 -87.4153 237° Southwest 329 379 10,000 -420 Descending Chicago Center
08:38AM 42.9933 -87.5167 240° Southwest 317 365 9,500 -1,320 Descending Chicago Center
08:39AM 42.9533 -87.6181 242° Southwest 273 314 7,400 -1,320 Descending Chicago Center
08:40AM 42.9156 -87.7039 239° Southwest 265 305 6,800 -1,080 Descending Chicago Center
08:41AM 42.8533 -87.7547 211° Southwest 258 297 5,200 -1,380 Descending Chicago Center
08:42AM 42.7917 -87.7983 207° Southwest 252 290 4,000 -900 Descending Chicago Center
08:43AM 42.7517 -87.8378 216° Southwest 219 252 3,400 -720 Descending Chicago Center
08:44AM 42.7608 -87.9233 278° West 222 255 2,600 -420 Descending Chicago Center
08:45AM 42.8117 -87.9306 354° North 217 250 2,600 -240 Level Chicago Center
08:46AM 42.8617 -87.9078 18° North 179 206 2,200 -540 Descending Chicago Center
08:47AM 42.8833 -87.9000 15° North 113 130 1,700 -720 Descending KMKE
08:48AM 42.9167 -87.9000 360° North 113 130 900 -780 Descending KMKE
08:50AM 42.9333 -87.8833 15° North  Level FlightAware Approximate
08:57AM 42.9469 -87.8971 15° North  Level Estimated